sensor_id;sensor_type;location;lat;lon;timestamp;temperature;humidity
25450;DHT22;13371;52.080;5.624;2022-12-18T00:02:14;-1.40;99.90
25450;DHT22;13371;52.080;5.624;2022-12-18T00:04:40;-1.10;99.90
25450;DHT22;13371;52.080;5.624;2022-12-18T00:07:05;-1.90;99.90
25450;DHT22;13371;52.080;5.624;2022-12-18T00:09:31;-2.20;99.90
25450;DHT22;13371;52.080;5.624;2022-12-18T00:11:56;-1.90;99.90
25450;DHT22;13371;52.080;5.624;2022-12-18T00:14:22;-1.70;99.90
25450;DHT22;13371;52.080;5.624;2022-12-18T00:16:47;-1.70;99.90
25450;DHT22;13371;52.080;5.624;2022-12-18T00:19:14;-1.50;99.90
25450;DHT22;13371;52.080;5.624;2022-12-18T00:21:40;-1.70;99.90
25450;DHT22;13371;52.080;5.624;2022-12-18T00:24:06;-1.70;99.90
25450;DHT22;13371;52.080;5.624;2022-12-18T00:26:33;-2.00;99.90
25450;DHT22;13371;52.080;5.624;2022-12-18T00:29:00;-1.90;99.90
25450;DHT22;13371;52.080;5.624;2022-12-18T00:31:26;-2.00;99.90
25450;DHT22;13371;52.080;5.624;2022-12-18T00:33:54;-2.20;99.90
25450;DHT22;13371;52.080;5.624;2022-12-18T00:36:26;-2.30;99.90
25450;DHT22;13371;52.080;5.624;2022-12-18T00:38:57;-2.40;99.90
25450;DHT22;13371;52.080;5.624;2022-12-18T00:41:23;-2.50;99.90
25450;DHT22;13371;52.080;5.624;2022-12-18T00:44:09;-2.30;99.90
25450;DHT22;13371;52.080;5.624;2022-12-18T00:46:35;-2.60;99.90
25450;DHT22;13371;52.080;5.624;2022-12-18T00:49:01;-2.60;99.90
25450;DHT22;13371;52.080;5.624;2022-12-18T00:51:27;-2.60;99.90
25450;DHT22;13371;52.080;5.624;2022-12-18T00:53:53;-2.30;99.90
25450;DHT22;13371;52.080;5.624;2022-12-18T00:56:22;-2.50;99.90
25450;DHT22;13371;52.080;5.624;2022-12-18T00:58:47;-2.50;99.90
25450;DHT22;13371;52.080;5.624;2022-12-18T01:01:13;-2.90;99.90
25450;DHT22;13371;52.080;5.624;2022-12-18T01:03:39;-2.50;99.90
25450;DHT22;13371;52.080;5.624;2022-12-18T01:06:09;-2.80;99.90
25450;DHT22;13371;52.080;5.624;2022-12-18T01:08:35;-2.80;99.90
25450;DHT22;13371;52.080;5.624;2022-12-18T01:11:08;-2.40;99.90
25450;DHT22;13371;52.080;5.624;2022-12-18T01:13:34;-2.30;99.90
25450;DHT22;13371;52.080;5.624;2022-12-18T01:15:59;-2.10;99.90
25450;DHT22;13371;52.080;5.624;2022-12-18T01:18:25;-1.80;99.90
25450;DHT22;13371;52.080;5.624;2022-12-18T01:20:50;-1.80;99.90
25450;DHT22;13371;52.080;5.624;2022-12-18T01:23:16;-2.30;99.90
25450;DHT22;13371;52.080;5.624;2022-12-18T01:25:42;-3.00;99.90
25450;DHT22;13371;52.080;5.624;2022-12-18T01:28:07;-3.00;99.90
25450;DHT22;13371;52.080;5.624;2022-12-18T01:30:33;-2.80;99.90
25450;DHT22;13371;52.080;5.624;2022-12-18T01:32:59;-2.70;99.90
25450;DHT22;13371;52.080;5.624;2022-12-18T01:35:24;-2.50;99.90
25450;DHT22;13371;52.080;5.624;2022-12-18T01:37:54;-2.20;99.90
25450;DHT22;13371;52.080;5.624;2022-12-18T01:40:19;-1.90;99.90
25450;DHT22;13371;52.080;5.624;2022-12-18T01:42:52;-1.70;99.90
25450;DHT22;13371;52.080;5.624;2022-12-18T01:47:49;-1.90;99.90
25450;DHT22;13371;52.080;5.624;2022-12-18T01:50:22;-1.80;99.90
25450;DHT22;13371;52.080;5.624;2022-12-18T01:52:54;-1.70;99.90
25450;DHT22;13371;52.080;5.624;2022-12-18T01:55:23;-2.00;99.90
25450;DHT22;13371;52.080;5.624;2022-12-18T01:57:54;-2.20;99.90
25450;DHT22;13371;52.080;5.624;2022-12-18T02:00:21;-1.60;99.90
25450;DHT22;13371;52.080;5.624;2022-12-18T02:02:47;-1.30;99.70
25450;DHT22;13371;52.080;5.624;2022-12-18T02:05:16;-1.90;99.90
25450;DHT22;13371;52.080;5.624;2022-12-18T02:08:08;-1.90;99.90
25450;DHT22;13371;52.080;5.624;2022-12-18T02:13:19;-2.30;99.90
25450;DHT22;13371;52.080;5.624;2022-12-18T02:16:14;-1.70;99.90
25450;DHT22;13371;52.080;5.624;2022-12-18T02:18:48;-2.00;99.80
25450;DHT22;13371;52.080;5.624;2022-12-18T02:24:33;-1.90;99.60
25450;DHT22;13371;52.080;5.624;2022-12-18T02:27:04;-1.90;98.80
25450;DHT22;13371;52.080;5.624;2022-12-18T02:29:54;-1.60;99.30
25450;DHT22;13371;52.080;5.624;2022-12-18T02:32:25;-1.30;98.40
25450;DHT22;13371;52.080;5.624;2022-12-18T02:34:54;-1.50;98.60
25450;DHT22;13371;52.080;5.624;2022-12-18T02:37:22;-2.00;99.10
25450;DHT22;13371;52.080;5.624;2022-12-18T02:39:49;-1.60;98.90
25450;DHT22;13371;52.080;5.624;2022-12-18T02:42:15;-1.50;98.60
25450;DHT22;13371;52.080;5.624;2022-12-18T02:44:44;-1.40;97.80
25450;DHT22;13371;52.080;5.624;2022-12-18T02:47:11;-1.10;97.80
25450;DHT22;13371;52.080;5.624;2022-12-18T02:57:55;-1.70;98.60
25450;DHT22;13371;52.080;5.624;2022-12-18T03:00:31;-1.70;98.10
25450;DHT22;13371;52.080;5.624;2022-12-18T03:03:24;-2.00;97.60
25450;DHT22;13371;52.080;5.624;2022-12-18T03:06:05;-2.40;98.70
25450;DHT22;13371;52.080;5.624;2022-12-18T03:08:39;-2.60;99.80
25450;DHT22;13371;52.080;5.624;2022-12-18T03:11:08;-2.30;99.90
25450;DHT22;13371;52.080;5.624;2022-12-18T03:13:48;-2.40;99.70
25450;DHT22;13371;52.080;5.624;2022-12-18T03:16:18;-2.90;99.90
25450;DHT22;13371;52.080;5.624;2022-12-18T03:18:52;-3.00;99.90
25450;DHT22;13371;52.080;5.624;2022-12-18T03:21:22;-3.00;99.90
25450;DHT22;13371;52.080;5.624;2022-12-18T03:23:50;-2.80;99.90
25450;DHT22;13371;52.080;5.624;2022-12-18T03:26:20;-3.00;99.90
25450;DHT22;13371;52.080;5.624;2022-12-18T03:28:51;-3.20;99.90
25450;DHT22;13371;52.080;5.624;2022-12-18T03:31:20;-2.80;99.90
25450;DHT22;13371;52.080;5.624;2022-12-18T03:33:52;-2.60;99.90
25450;DHT22;13371;52.080;5.624;2022-12-18T03:36:18;-2.20;99.30
25450;DHT22;13371;52.080;5.624;2022-12-18T03:38:44;-2.10;98.80
25450;DHT22;13371;52.080;5.624;2022-12-18T03:41:30;-2.30;98.40
25450;DHT22;13371;52.080;5.624;2022-12-18T03:44:21;-2.60;98.80
25450;DHT22;13371;52.080;5.624;2022-12-18T03:47:01;-2.90;99.90
25450;DHT22;13371;52.080;5.624;2022-12-18T03:49:38;-2.80;99.90
25450;DHT22;13371;52.080;5.624;2022-12-18T03:52:22;-2.30;99.80
25450;DHT22;13371;52.080;5.624;2022-12-18T03:54:52;-2.00;98.30
25450;DHT22;13371;52.080;5.624;2022-12-18T03:57:24;-2.20;98.30
25450;DHT22;13371;52.080;5.624;2022-12-18T03:59:57;-2.00;98.30
25450;DHT22;13371;52.080;5.624;2022-12-18T04:02:25;-2.80;99.30
25450;DHT22;13371;52.080;5.624;2022-12-18T04:04:57;-3.30;99.90
25450;DHT22;13371;52.080;5.624;2022-12-18T04:07:24;-3.50;99.90
25450;DHT22;13371;52.080;5.624;2022-12-18T04:09:53;-3.20;99.90
25450;DHT22;13371;52.080;5.624;2022-12-18T04:12:21;-3.00;99.90
25450;DHT22;13371;52.080;5.624;2022-12-18T04:14:49;-2.90;99.90
25450;DHT22;13371;52.080;5.624;2022-12-18T04:17:14;-2.80;99.60
25450;DHT22;13371;52.080;5.624;2022-12-18T04:19:40;-3.10;99.70
25450;DHT22;13371;52.080;5.624;2022-12-18T04:22:05;-3.20;99.90
25450;DHT22;13371;52.080;5.624;2022-12-18T04:24:31;-3.10;99.90
25450;DHT22;13371;52.080;5.624;2022-12-18T04:26:56;-3.60;99.90
25450;DHT22;13371;52.080;5.624;2022-12-18T04:29:22;-3.20;99.90
25450;DHT22;13371;52.080;5.624;2022-12-18T04:31:47;-3.20;99.90
25450;DHT22;13371;52.080;5.624;2022-12-18T04:34:13;-3.20;99.90
25450;DHT22;13371;52.080;5.624;2022-12-18T04:36:38;-2.90;99.90
25450;DHT22;13371;52.080;5.624;2022-12-18T04:39:04;-3.40;99.90
25450;DHT22;13371;52.080;5.624;2022-12-18T04:41:29;-3.70;99.90
25450;DHT22;13371;52.080;5.624;2022-12-18T04:43:55;-3.90;99.90
25450;DHT22;13371;52.080;5.624;2022-12-18T04:46:21;-3.80;99.90
25450;DHT22;13371;52.080;5.624;2022-12-18T04:48:46;-3.50;99.90
25450;DHT22;13371;52.080;5.624;2022-12-18T04:51:12;-3.50;99.90
25450;DHT22;13371;52.080;5.624;2022-12-18T04:53:38;-3.50;99.90
25450;DHT22;13371;52.080;5.624;2022-12-18T04:56:07;-3.30;99.90
25450;DHT22;13371;52.080;5.624;2022-12-18T04:58:34;-2.90;99.90
25450;DHT22;13371;52.080;5.624;2022-12-18T05:01:00;-3.00;99.90
25450;DHT22;13371;52.080;5.624;2022-12-18T05:03:25;-2.80;99.90
25450;DHT22;13371;52.080;5.624;2022-12-18T05:05:51;-2.70;99.70
25450;DHT22;13371;52.080;5.624;2022-12-18T05:08:17;-2.50;99.60
25450;DHT22;13371;52.080;5.624;2022-12-18T05:10:43;-2.50;98.90
25450;DHT22;13371;52.080;5.624;2022-12-18T05:13:09;-2.50;99.00
25450;DHT22;13371;52.080;5.624;2022-12-18T05:15:34;-2.60;98.70
25450;DHT22;13371;52.080;5.624;2022-12-18T05:18:01;-3.00;99.90
25450;DHT22;13371;52.080;5.624;2022-12-18T05:20:28;-3.40;99.90
25450;DHT22;13371;52.080;5.624;2022-12-18T05:22:54;-3.30;99.90
25450;DHT22;13371;52.080;5.624;2022-12-18T05:25:20;-3.00;99.90
25450;DHT22;13371;52.080;5.624;2022-12-18T05:27:46;-3.10;99.90
25450;DHT22;13371;52.080;5.624;2022-12-18T05:30:12;-3.40;99.90
25450;DHT22;13371;52.080;5.624;2022-12-18T05:32:38;-3.90;99.90
25450;DHT22;13371;52.080;5.624;2022-12-18T05:35:06;-3.40;99.90
25450;DHT22;13371;52.080;5.624;2022-12-18T05:37:31;-3.30;99.90
25450;DHT22;13371;52.080;5.624;2022-12-18T05:39:57;-2.80;99.90
25450;DHT22;13371;52.080;5.624;2022-12-18T05:42:23;-3.20;99.90
25450;DHT22;13371;52.080;5.624;2022-12-18T05:44:48;-3.10;99.90
25450;DHT22;13371;52.080;5.624;2022-12-18T05:47:14;-3.20;99.90
25450;DHT22;13371;52.080;5.624;2022-12-18T05:49:39;-3.40;99.90
25450;DHT22;13371;52.080;5.624;2022-12-18T05:52:05;-3.40;99.90
25450;DHT22;13371;52.080;5.624;2022-12-18T05:54:31;-3.30;99.90
25450;DHT22;13371;52.080;5.624;2022-12-18T05:56:57;-3.40;99.90
25450;DHT22;13371;52.080;5.624;2022-12-18T05:59:22;-3.50;99.90
25450;DHT22;13371;52.080;5.624;2022-12-18T06:01:48;-3.70;99.90
25450;DHT22;13371;52.080;5.624;2022-12-18T06:04:14;-4.00;99.90
25450;DHT22;13371;52.080;5.624;2022-12-18T06:06:39;-3.70;99.90
25450;DHT22;13371;52.080;5.624;2022-12-18T06:09:05;-3.50;99.90
25450;DHT22;13371;52.080;5.624;2022-12-18T06:11:34;-3.60;99.90
25450;DHT22;13371;52.080;5.624;2022-12-18T06:14:00;-3.30;99.90
25450;DHT22;13371;52.080;5.624;2022-12-18T06:16:27;-3.10;99.90
25450;DHT22;13371;52.080;5.624;2022-12-18T06:18:52;-3.10;99.90
25450;DHT22;13371;52.080;5.624;2022-12-18T06:21:18;-3.30;99.90
25450;DHT22;13371;52.080;5.624;2022-12-18T06:23:44;-3.40;99.90
25450;DHT22;13371;52.080;5.624;2022-12-18T06:26:11;-3.50;99.90
25450;DHT22;13371;52.080;5.624;2022-12-18T06:28:37;-3.80;99.90
25450;DHT22;13371;52.080;5.624;2022-12-18T06:31:06;-3.60;99.90
25450;DHT22;13371;52.080;5.624;2022-12-18T06:33:33;-3.50;99.90
25450;DHT22;13371;52.080;5.624;2022-12-18T06:36:03;-3.40;99.90
25450;DHT22;13371;52.080;5.624;2022-12-18T06:38:31;-2.90;99.90
25450;DHT22;13371;52.080;5.624;2022-12-18T06:40:57;-2.60;99.90
25450;DHT22;13371;52.080;5.624;2022-12-18T06:43:22;-2.70;99.70
25450;DHT22;13371;52.080;5.624;2022-12-18T06:45:48;-3.00;99.90
25450;DHT22;13371;52.080;5.624;2022-12-18T06:48:18;-3.40;99.90
25450;DHT22;13371;52.080;5.624;2022-12-18T06:50:45;-3.30;99.90
25450;DHT22;13371;52.080;5.624;2022-12-18T06:53:10;-3.20;99.90
25450;DHT22;13371;52.080;5.624;2022-12-18T06:55:36;-3.20;99.90
25450;DHT22;13371;52.080;5.624;2022-12-18T06:58:02;-2.80;99.90
25450;DHT22;13371;52.080;5.624;2022-12-18T07:00:27;-3.30;99.90
25450;DHT22;13371;52.080;5.624;2022-12-18T07:02:53;-3.40;99.90
25450;DHT22;13371;52.080;5.624;2022-12-18T07:05:18;-3.30;99.90
25450;DHT22;13371;52.080;5.624;2022-12-18T07:07:44;-2.90;99.90
25450;DHT22;13371;52.080;5.624;2022-12-18T07:10:09;-2.90;99.90
25450;DHT22;13371;52.080;5.624;2022-12-18T07:12:35;-3.60;99.90
25450;DHT22;13371;52.080;5.624;2022-12-18T07:15:01;-3.80;99.90
25450;DHT22;13371;52.080;5.624;2022-12-18T07:17:26;-3.70;99.90
25450;DHT22;13371;52.080;5.624;2022-12-18T07:19:52;-3.30;99.90
25450;DHT22;13371;52.080;5.624;2022-12-18T07:22:18;-3.30;99.90
25450;DHT22;13371;52.080;5.624;2022-12-18T07:24:43;-3.10;99.90
25450;DHT22;13371;52.080;5.624;2022-12-18T07:27:09;-3.30;99.90
25450;DHT22;13371;52.080;5.624;2022-12-18T07:29:34;-3.50;99.90
25450;DHT22;13371;52.080;5.624;2022-12-18T07:32:00;-3.60;99.90
25450;DHT22;13371;52.080;5.624;2022-12-18T07:34:25;-3.50;99.90
25450;DHT22;13371;52.080;5.624;2022-12-18T07:36:51;-3.60;99.90
25450;DHT22;13371;52.080;5.624;2022-12-18T07:39:16;-3.50;99.90
25450;DHT22;13371;52.080;5.624;2022-12-18T07:41:42;-3.20;99.90
25450;DHT22;13371;52.080;5.624;2022-12-18T07:44:11;-3.50;99.90
25450;DHT22;13371;52.080;5.624;2022-12-18T07:46:38;-3.20;99.90
25450;DHT22;13371;52.080;5.624;2022-12-18T07:49:03;-2.70;99.90
25450;DHT22;13371;52.080;5.624;2022-12-18T07:51:29;-2.80;99.90
25450;DHT22;13371;52.080;5.624;2022-12-18T07:53:55;-2.80;99.90
25450;DHT22;13371;52.080;5.624;2022-12-18T07:56:21;-3.20;99.90
25450;DHT22;13371;52.080;5.624;2022-12-18T07:58:47;-3.30;99.90
25450;DHT22;13371;52.080;5.624;2022-12-18T08:01:13;-2.90;99.90
25450;DHT22;13371;52.080;5.624;2022-12-18T08:03:40;-2.80;99.90
25450;DHT22;13371;52.080;5.624;2022-12-18T08:06:07;-2.50;99.90
25450;DHT22;13371;52.080;5.624;2022-12-18T08:08:33;-2.60;99.90
25450;DHT22;13371;52.080;5.624;2022-12-18T08:10:59;-2.40;99.90
25450;DHT22;13371;52.080;5.624;2022-12-18T08:13:25;-2.70;99.90
25450;DHT22;13371;52.080;5.624;2022-12-18T08:16:02;-2.70;99.90
25450;DHT22;13371;52.080;5.624;2022-12-18T08:18:28;-3.10;99.90
25450;DHT22;13371;52.080;5.624;2022-12-18T08:20:54;-2.90;99.90
25450;DHT22;13371;52.080;5.624;2022-12-18T08:23:20;-2.50;99.90
25450;DHT22;13371;52.080;5.624;2022-12-18T08:25:46;-2.30;99.90
25450;DHT22;13371;52.080;5.624;2022-12-18T08:28:11;-2.50;99.90
25450;DHT22;13371;52.080;5.624;2022-12-18T08:30:37;-2.60;99.90
25450;DHT22;13371;52.080;5.624;2022-12-18T08:33:03;-2.60;99.90
25450;DHT22;13371;52.080;5.624;2022-12-18T08:35:28;-2.60;99.90
25450;DHT22;13371;52.080;5.624;2022-12-18T08:37:54;-2.30;99.90
25450;DHT22;13371;52.080;5.624;2022-12-18T08:40:19;-2.40;99.90
25450;DHT22;13371;52.080;5.624;2022-12-18T08:42:45;-2.40;99.90
25450;DHT22;13371;52.080;5.624;2022-12-18T08:45:29;-2.10;99.90
25450;DHT22;13371;52.080;5.624;2022-12-18T08:47:54;-2.00;99.90
25450;DHT22;13371;52.080;5.624;2022-12-18T08:50:20;-1.90;99.90
25450;DHT22;13371;52.080;5.624;2022-12-18T08:52:46;-1.80;99.90
25450;DHT22;13371;52.080;5.624;2022-12-18T08:55:11;-1.60;99.90
25450;DHT22;13371;52.080;5.624;2022-12-18T08:57:37;-1.50;99.90
25450;DHT22;13371;52.080;5.624;2022-12-18T09:00:04;-1.30;99.90
25450;DHT22;13371;52.080;5.624;2022-12-18T09:02:30;-1.00;99.30
25450;DHT22;13371;52.080;5.624;2022-12-18T09:04:55;-1.10;99.30
25450;DHT22;13371;52.080;5.624;2022-12-18T09:07:21;-1.30;99.40
25450;DHT22;13371;52.080;5.624;2022-12-18T09:09:46;-1.20;99.70
25450;DHT22;13371;52.080;5.624;2022-12-18T09:12:12;-1.60;99.90
25450;DHT22;13371;52.080;5.624;2022-12-18T09:14:37;-1.50;99.90
25450;DHT22;13371;52.080;5.624;2022-12-18T09:17:03;-1.50;99.90
25450;DHT22;13371;52.080;5.624;2022-12-18T09:19:29;-1.20;99.90
25450;DHT22;13371;52.080;5.624;2022-12-18T09:21:54;-1.40;99.80
25450;DHT22;13371;52.080;5.624;2022-12-18T09:24:23;-1.50;99.90
25450;DHT22;13371;52.080;5.624;2022-12-18T09:26:52;-1.40;99.90
25450;DHT22;13371;52.080;5.624;2022-12-18T09:29:18;-1.10;99.90
25450;DHT22;13371;52.080;5.624;2022-12-18T09:31:43;-0.90;99.40
25450;DHT22;13371;52.080;5.624;2022-12-18T09:34:09;-1.10;99.60
25450;DHT22;13371;52.080;5.624;2022-12-18T09:36:34;-1.10;99.90
25450;DHT22;13371;52.080;5.624;2022-12-18T09:39:00;-1.30;99.90
25450;DHT22;13371;52.080;5.624;2022-12-18T09:46:50;-1.60;99.90
25450;DHT22;13371;52.080;5.624;2022-12-18T09:49:19;-1.30;99.90
25450;DHT22;13371;52.080;5.624;2022-12-18T09:52:04;-1.00;99.90
25450;DHT22;13371;52.080;5.624;2022-12-18T09:54:46;-1.10;99.90
25450;DHT22;13371;52.080;5.624;2022-12-18T09:57:18;-1.20;99.90
25450;DHT22;13371;52.080;5.624;2022-12-18T09:59:56;-1.00;99.90
25450;DHT22;13371;52.080;5.624;2022-12-18T10:02:26;-1.00;99.90
25450;DHT22;13371;52.080;5.624;2022-12-18T10:05:20;-1.00;99.90
25450;DHT22;13371;52.080;5.624;2022-12-18T10:07:51;-0.50;99.40
25450;DHT22;13371;52.080;5.624;2022-12-18T10:10:43;-0.80;99.40
25450;DHT22;13371;52.080;5.624;2022-12-18T10:13:27;-0.70;99.50
25450;DHT22;13371;52.080;5.624;2022-12-18T10:16:12;-0.70;99.60
25450;DHT22;13371;52.080;5.624;2022-12-18T10:19:06;-0.60;98.90
25450;DHT22;13371;52.080;5.624;2022-12-18T10:21:47;-0.50;98.70
25450;DHT22;13371;52.080;5.624;2022-12-18T10:24:42;-1.00;99.90
25450;DHT22;13371;52.080;5.624;2022-12-18T10:27:14;-0.80;99.50
25450;DHT22;13371;52.080;5.624;2022-12-18T10:29:42;-0.50;98.80
25450;DHT22;13371;52.080;5.624;2022-12-18T10:32:17;-0.60;99.30
25450;DHT22;13371;52.080;5.624;2022-12-18T10:34:47;-0.70;99.50
25450;DHT22;13371;52.080;5.624;2022-12-18T10:37:19;-0.60;99.40
25450;DHT22;13371;52.080;5.624;2022-12-18T10:39:47;-0.90;99.50
25450;DHT22;13371;52.080;5.624;2022-12-18T10:42:29;-0.50;99.50
25450;DHT22;13371;52.080;5.624;2022-12-18T10:45:16;-0.40;98.70
25450;DHT22;13371;52.080;5.624;2022-12-18T10:47:47;-0.50;98.60
25450;DHT22;13371;52.080;5.624;2022-12-18T10:50:36;-0.40;98.90
25450;DHT22;13371;52.080;5.624;2022-12-18T10:53:04;-0.50;98.70
25450;DHT22;13371;52.080;5.624;2022-12-18T10:55:33;-0.30;98.80
25450;DHT22;13371;52.080;5.624;2022-12-18T10:58:27;-0.10;98.20
25450;DHT22;13371;52.080;5.624;2022-12-18T11:01:16;-0.30;97.80
25450;DHT22;13371;52.080;5.624;2022-12-18T11:04:00;-0.20;98.30
25450;DHT22;13371;52.080;5.624;2022-12-18T11:06:27;-0.20;98.30
25450;DHT22;13371;52.080;5.624;2022-12-18T11:11:25;0.20;97.70
25450;DHT22;13371;52.080;5.624;2022-12-18T11:16:23;-0.10;97.50
25450;DHT22;13371;52.080;5.624;2022-12-18T11:18:49;-0.10;97.70
25450;DHT22;13371;52.080;5.624;2022-12-18T11:21:15;0.00;97.90
25450;DHT22;13371;52.080;5.624;2022-12-18T11:23:52;0.20;97.50
25450;DHT22;13371;52.080;5.624;2022-12-18T11:26:19;0.00;97.30
25450;DHT22;13371;52.080;5.624;2022-12-18T11:29:08;-0.20;97.90
25450;DHT22;13371;52.080;5.624;2022-12-18T11:31:34;0.20;97.90
25450;DHT22;13371;52.080;5.624;2022-12-18T11:34:17;0.10;97.20
25450;DHT22;13371;52.080;5.624;2022-12-18T11:36:46;0.20;96.90
25450;DHT22;13371;52.080;5.624;2022-12-18T11:42:10;0.30;97.10
25450;DHT22;13371;52.080;5.624;2022-12-18T11:44:50;0.50;96.70
25450;DHT22;13371;52.080;5.624;2022-12-18T11:47:42;0.50;96.80
25450;DHT22;13371;52.080;5.624;2022-12-18T11:50:22;0.60;96.30
25450;DHT22;13371;52.080;5.624;2022-12-18T11:52:49;0.50;96.50
25450;DHT22;13371;52.080;5.624;2022-12-18T12:01:11;0.40;96.60
25450;DHT22;13371;52.080;5.624;2022-12-18T12:06:32;0.90;96.40
25450;DHT22;13371;52.080;5.624;2022-12-18T12:11:50;1.40;95.20
25450;DHT22;13371;52.080;5.624;2022-12-18T12:14:42;0.80;95.60
25450;DHT22;13371;52.080;5.624;2022-12-18T12:20:21;0.80;95.90
25450;DHT22;13371;52.080;5.624;2022-12-18T12:23:15;0.80;95.90
25450;DHT22;13371;52.080;5.624;2022-12-18T12:25:51;1.20;95.20
25450;DHT22;13371;52.080;5.624;2022-12-18T12:34:16;1.20;95.00
25450;DHT22;13371;52.080;5.624;2022-12-18T12:39:36;1.30;95.00
25450;DHT22;13371;52.080;5.624;2022-12-18T12:42:04;1.30;95.00
25450;DHT22;13371;52.080;5.624;2022-12-18T12:44:55;1.10;95.10
25450;DHT22;13371;52.080;5.624;2022-12-18T12:47:28;1.00;95.50
25450;DHT22;13371;52.080;5.624;2022-12-18T12:49:57;1.00;95.80
25450;DHT22;13371;52.080;5.624;2022-12-18T12:52:31;1.40;95.10
25450;DHT22;13371;52.080;5.624;2022-12-18T12:54:58;1.30;94.50
25450;DHT22;13371;52.080;5.624;2022-12-18T12:57:34;1.30;94.90
25450;DHT22;13371;52.080;5.624;2022-12-18T13:00:26;1.00;95.50
25450;DHT22;13371;52.080;5.624;2022-12-18T13:03:24;1.20;95.60
25450;DHT22;13371;52.080;5.624;2022-12-18T13:06:04;1.60;94.60
25450;DHT22;13371;52.080;5.624;2022-12-18T13:09:00;1.50;94.30
25450;DHT22;13371;52.080;5.624;2022-12-18T13:11:46;1.20;95.10
25450;DHT22;13371;52.080;5.624;2022-12-18T13:14:36;1.50;94.60
25450;DHT22;13371;52.080;5.624;2022-12-18T13:19:50;1.50;94.50
25450;DHT22;13371;52.080;5.624;2022-12-18T13:22:28;1.40;94.80
25450;DHT22;13371;52.080;5.624;2022-12-18T13:24:55;1.50;94.60
25450;DHT22;13371;52.080;5.624;2022-12-18T13:38:39;1.60;94.40
25450;DHT22;13371;52.080;5.624;2022-12-18T13:41:24;1.90;94.30
25450;DHT22;13371;52.080;5.624;2022-12-18T13:43:52;1.80;93.40
25450;DHT22;13371;52.080;5.624;2022-12-18T13:46:47;1.80;93.90
25450;DHT22;13371;52.080;5.624;2022-12-18T13:51:46;1.90;93.50
25450;DHT22;13371;52.080;5.624;2022-12-18T13:54:34;1.80;94.40
25450;DHT22;13371;52.080;5.624;2022-12-18T13:57:01;1.90;94.00
25450;DHT22;13371;52.080;5.624;2022-12-18T13:59:34;1.40;94.30
25450;DHT22;13371;52.080;5.624;2022-12-18T14:04:38;1.10;95.00
25450;DHT22;13371;52.080;5.624;2022-12-18T14:07:06;1.50;94.70
25450;DHT22;13371;52.080;5.624;2022-12-18T14:09:43;1.50;94.00
25450;DHT22;13371;52.080;5.624;2022-12-18T14:12:29;1.30;94.20
25450;DHT22;13371;52.080;5.624;2022-12-18T14:17:58;1.70;94.40
25450;DHT22;13371;52.080;5.624;2022-12-18T14:20:25;2.00;93.60
25450;DHT22;13371;52.080;5.624;2022-12-18T14:22:52;2.20;93.10
25450;DHT22;13371;52.080;5.624;2022-12-18T14:25:21;2.20;92.90
25450;DHT22;13371;52.080;5.624;2022-12-18T14:27:51;2.00;93.00
25450;DHT22;13371;52.080;5.624;2022-12-18T14:30:30;1.80;93.40
25450;DHT22;13371;52.080;5.624;2022-12-18T14:33:09;2.00;93.00
25450;DHT22;13371;52.080;5.624;2022-12-18T14:35:37;1.60;93.70
25450;DHT22;13371;52.080;5.624;2022-12-18T14:38:23;1.80;93.40
25450;DHT22;13371;52.080;5.624;2022-12-18T14:41:01;0.90;94.60
25450;DHT22;13371;52.080;5.624;2022-12-18T14:43:28;0.90;95.20
25450;DHT22;13371;52.080;5.624;2022-12-18T14:45:55;1.20;94.50
25450;DHT22;13371;52.080;5.624;2022-12-18T14:51:03;1.40;94.20
25450;DHT22;13371;52.080;5.624;2022-12-18T14:53:39;1.80;93.70
25450;DHT22;13371;52.080;5.624;2022-12-18T14:56:17;2.20;93.30
25450;DHT22;13371;52.080;5.624;2022-12-18T14:58:53;1.70;93.20
25450;DHT22;13371;52.080;5.624;2022-12-18T15:03:57;1.20;94.00
25450;DHT22;13371;52.080;5.624;2022-12-18T15:08:53;1.10;94.50
25450;DHT22;13371;52.080;5.624;2022-12-18T15:11:33;1.20;94.40
25450;DHT22;13371;52.080;5.624;2022-12-18T15:14:03;1.20;94.40
25450;DHT22;13371;52.080;5.624;2022-12-18T15:16:50;1.20;94.20
25450;DHT22;13371;52.080;5.624;2022-12-18T15:19:16;1.30;94.20
25450;DHT22;13371;52.080;5.624;2022-12-18T15:21:43;1.40;94.00
25450;DHT22;13371;52.080;5.624;2022-12-18T15:24:18;1.60;93.60
25450;DHT22;13371;52.080;5.624;2022-12-18T15:26:43;1.60;93.50
25450;DHT22;13371;52.080;5.624;2022-12-18T15:29:35;1.50;93.60
25450;DHT22;13371;52.080;5.624;2022-12-18T15:32:03;1.80;93.60
25450;DHT22;13371;52.080;5.624;2022-12-18T15:34:30;1.60;93.40
25450;DHT22;13371;52.080;5.624;2022-12-18T15:36:56;1.60;93.50
25450;DHT22;13371;52.080;5.624;2022-12-18T15:39:22;1.50;93.80
25450;DHT22;13371;52.080;5.624;2022-12-18T15:41:47;1.50;93.80
25450;DHT22;13371;52.080;5.624;2022-12-18T15:44:32;1.80;93.40
25450;DHT22;13371;52.080;5.624;2022-12-18T15:46:58;1.90;93.40
25450;DHT22;13371;52.080;5.624;2022-12-18T15:49:23;1.70;93.40
25450;DHT22;13371;52.080;5.624;2022-12-18T15:51:54;1.30;94.30
25450;DHT22;13371;52.080;5.624;2022-12-18T15:54:21;1.40;94.40
25450;DHT22;13371;52.080;5.624;2022-12-18T15:57:11;1.50;94.10
25450;DHT22;13371;52.080;5.624;2022-12-18T15:59:49;1.90;93.30
25450;DHT22;13371;52.080;5.624;2022-12-18T16:02:17;1.70;93.40
25450;DHT22;13371;52.080;5.624;2022-12-18T16:04:43;1.60;93.80
25450;DHT22;13371;52.080;5.624;2022-12-18T16:07:09;1.60;93.80
25450;DHT22;13371;52.080;5.624;2022-12-18T16:09:35;1.30;94.00
25450;DHT22;13371;52.080;5.624;2022-12-18T16:12:00;1.40;94.10
25450;DHT22;13371;52.080;5.624;2022-12-18T16:14:28;1.50;94.10
25450;DHT22;13371;52.080;5.624;2022-12-18T16:17:00;1.40;94.20
25450;DHT22;13371;52.080;5.624;2022-12-18T16:19:26;1.30;94.40
25450;DHT22;13371;52.080;5.624;2022-12-18T16:21:54;1.20;94.40
25450;DHT22;13371;52.080;5.624;2022-12-18T16:24:26;1.00;94.80
25450;DHT22;13371;52.080;5.624;2022-12-18T16:26:52;1.40;94.70
25450;DHT22;13371;52.080;5.624;2022-12-18T16:29:19;1.70;94.20
25450;DHT22;13371;52.080;5.624;2022-12-18T16:31:53;1.60;93.80
25450;DHT22;13371;52.080;5.624;2022-12-18T16:34:21;1.50;94.10
25450;DHT22;13371;52.080;5.624;2022-12-18T16:36:52;1.20;94.10
25450;DHT22;13371;52.080;5.624;2022-12-18T16:39:21;1.20;94.60
25450;DHT22;13371;52.080;5.624;2022-12-18T16:41:47;1.20;94.70
25450;DHT22;13371;52.080;5.624;2022-12-18T16:44:13;1.30;94.40
25450;DHT22;13371;52.080;5.624;2022-12-18T16:46:39;1.40;94.20
25450;DHT22;13371;52.080;5.624;2022-12-18T16:49:08;1.30;94.40
25450;DHT22;13371;52.080;5.624;2022-12-18T16:51:34;1.30;94.50
25450;DHT22;13371;52.080;5.624;2022-12-18T16:53:59;1.50;94.00
25450;DHT22;13371;52.080;5.624;2022-12-18T16:56:25;1.00;94.60
25450;DHT22;13371;52.080;5.624;2022-12-18T16:58:56;1.30;94.80
25450;DHT22;13371;52.080;5.624;2022-12-18T17:01:23;1.60;94.00
25450;DHT22;13371;52.080;5.624;2022-12-18T17:03:57;1.40;94.00
25450;DHT22;13371;52.080;5.624;2022-12-18T17:06:24;1.50;94.20
25450;DHT22;13371;52.080;5.624;2022-12-18T17:09:17;1.80;93.70
25450;DHT22;13371;52.080;5.624;2022-12-18T17:11:48;1.60;93.70
25450;DHT22;13371;52.080;5.624;2022-12-18T17:14:16;1.30;93.80
25450;DHT22;13371;52.080;5.624;2022-12-18T17:16:41;1.30;94.50
25450;DHT22;13371;52.080;5.624;2022-12-18T17:19:07;1.30;94.30